sensor_id;sensor_type;location;lat;lon;timestamp;P1;durP1;ratioP1;P2;durP2;ratioP2
64052;SDS011;50299;49.524;8.536;2023-03-01T00:02:06;21.75;;;16.65;;
64052;SDS011;50299;49.524;8.536;2023-03-01T00:04:32;22.52;;;16.42;;
64052;SDS011;50299;49.524;8.536;2023-03-01T00:06:59;22.02;;;14.77;;
64052;SDS011;50299;49.524;8.536;2023-03-01T00:09:25;19.55;;;14.32;;
64052;SDS011;50299;49.524;8.536;2023-03-01T00:11:51;19.90;;;14.63;;
64052;SDS011;50299;49.524;8.536;2023-03-01T00:14:18;18.73;;;13.95;;
64052;SDS011;50299;49.524;8.536;2023-03-01T00:16:44;17.48;;;15.10;;
64052;SDS011;50299;49.524;8.536;2023-03-01T00:19:13;18.83;;;14.75;;
64052;SDS011;50299;49.524;8.536;2023-03-01T00:21:41;19.27;;;14.32;;
64052;SDS011;50299;49.524;8.536;2023-03-01T00:24:09;20.58;;;14.77;;
64052;SDS011;50299;49.524;8.536;2023-03-01T00:26:36;17.48;;;14.70;;
64052;SDS011;50299;49.524;8.536;2023-03-01T00:29:03;20.70;;;15.27;;
64052;SDS011;50299;49.524;8.536;2023-03-01T00:31:30;21.58;;;15.68;;
64052;SDS011;50299;49.524;8.536;2023-03-01T00:33:59;21.67;;;17.60;;
64052;SDS011;50299;49.524;8.536;2023-03-01T00:36:29;23.92;;;15.75;;
64052;SDS011;50299;49.524;8.536;2023-03-01T00:38:58;20.08;;;14.73;;
64052;SDS011;50299;49.524;8.536;2023-03-01T00:41:24;21.88;;;15.63;;
64052;SDS011;50299;49.524;8.536;2023-03-01T00:43:54;20.02;;;16.15;;
64052;SDS011;50299;49.524;8.536;2023-03-01T00:46:25;19.10;;;15.18;;
64052;SDS011;50299;49.524;8.536;2023-03-01T00:48:53;19.05;;;15.35;;
64052;SDS011;50299;49.524;8.536;2023-03-01T00:51:21;21.15;;;15.75;;
64052;SDS011;50299;49.524;8.536;2023-03-01T00:53:53;22.77;;;15.68;;
64052;SDS011;50299;49.524;8.536;2023-03-01T00:56:21;22.75;;;15.40;;
64052;SDS011;50299;49.524;8.536;2023-03-01T00:58:47;29.50;;;17.88;;
64052;SDS011;50299;49.524;8.536;2023-03-01T01:01:18;22.83;;;16.88;;
64052;SDS011;50299;49.524;8.536;2023-03-01T01:03:54;22.00;;;16.88;;
64052;SDS011;50299;49.524;8.536;2023-03-01T01:06:32;22.45;;;16.15;;
64052;SDS011;50299;49.524;8.536;2023-03-01T01:09:00;20.58;;;16.10;;
64052;SDS011;50299;49.524;8.536;2023-03-01T01:11:27;23.95;;;16.90;;
64052;SDS011;50299;49.524;8.536;2023-03-01T01:13:55;26.42;;;17.63;;
64052;SDS011;50299;49.524;8.536;2023-03-01T01:16:25;25.98;;;18.17;;
64052;SDS011;50299;49.524;8.536;2023-03-01T01:18:53;23.83;;;16.85;;
64052;SDS011;50299;49.524;8.536;2023-03-01T01:21:21;24.40;;;17.70;;
64052;SDS011;50299;49.524;8.536;2023-03-01T01:23:49;24.88;;;17.85;;
64052;SDS011;50299;49.524;8.536;2023-03-01T01:26:18;26.48;;;18.23;;
64052;SDS011;50299;49.524;8.536;2023-03-01T01:28:46;24.13;;;17.40;;
64052;SDS011;50299;49.524;8.536;2023-03-01T01:31:13;25.15;;;19.45;;
64052;SDS011;50299;49.524;8.536;2023-03-01T01:33:40;25.20;;;17.38;;
64052;SDS011;50299;49.524;8.536;2023-03-01T01:36:07;24.65;;;19.13;;
64052;SDS011;50299;49.524;8.536;2023-03-01T01:38:34;24.15;;;17.08;;
64052;SDS011;50299;49.524;8.536;2023-03-01T01:41:02;28.30;;;17.15;;
64052;SDS011;50299;49.524;8.536;2023-03-01T01:43:31;24.95;;;17.75;;
64052;SDS011;50299;49.524;8.536;2023-03-01T01:46:03;25.48;;;17.95;;
64052;SDS011;50299;49.524;8.536;2023-03-01T01:48:43;27.80;;;19.90;;
64052;SDS011;50299;49.524;8.536;2023-03-01T01:51:20;29.45;;;20.38;;
64052;SDS011;50299;49.524;8.536;2023-03-01T01:53:55;26.42;;;18.75;;
64052;SDS011;50299;49.524;8.536;2023-03-01T01:56:25;29.45;;;20.33;;
64052;SDS011;50299;49.524;8.536;2023-03-01T01:58:53;40.92;;;25.98;;
64052;SDS011;50299;49.524;8.536;2023-03-01T02:01:20;34.72;;;21.15;;
64052;SDS011;50299;49.524;8.536;2023-03-01T02:03:47;30.25;;;19.42;;
64052;SDS011;50299;49.524;8.536;2023-03-01T02:06:19;30.33;;;19.77;;
64052;SDS011;50299;49.524;8.536;2023-03-01T02:08:57;31.27;;;19.02;;
64052;SDS011;50299;49.524;8.536;2023-03-01T02:11:29;26.92;;;18.85;;
64052;SDS011;50299;49.524;8.536;2023-03-01T02:13:57;26.48;;;17.92;;
64052;SDS011;50299;49.524;8.536;2023-03-01T02:16:23;25.83;;;16.88;;
64052;SDS011;50299;49.524;8.536;2023-03-01T02:18:52;26.90;;;17.63;;
64052;SDS011;50299;49.524;8.536;2023-03-01T02:23:54;27.98;;;17.90;;
64052;SDS011;50299;49.524;8.536;2023-03-01T02:29:03;29.92;;;18.88;;
64052;SDS011;50299;49.524;8.536;2023-03-01T02:31:31;29.88;;;19.40;;
64052;SDS011;50299;49.524;8.536;2023-03-01T02:36:45;29.40;;;20.25;;
64052;SDS011;50299;49.524;8.536;2023-03-01T02:39:17;28.83;;;20.55;;
64052;SDS011;50299;49.524;8.536;2023-03-01T02:41:49;25.98;;;18.77;;
64052;SDS011;50299;49.524;8.536;2023-03-01T02:44:18;29.13;;;18.02;;
64052;SDS011;50299;49.524;8.536;2023-03-01T02:46:49;29.60;;;19.88;;
64052;SDS011;50299;49.524;8.536;2023-03-01T02:49:22;30.83;;;19.75;;
64052;SDS011;50299;49.524;8.536;2023-03-01T02:54:47;29.15;;;18.73;;
64052;SDS011;50299;49.524;8.536;2023-03-01T02:57:18;27.50;;;18.98;;
64052;SDS011;50299;49.524;8.536;2023-03-01T02:59:45;27.27;;;18.17;;
64052;SDS011;50299;49.524;8.536;2023-03-01T03:02:45;27.80;;;18.38;;
64052;SDS011;50299;49.524;8.536;2023-03-01T03:05:09;29.70;;;19.95;;
64052;SDS011;50299;49.524;8.536;2023-03-01T03:07:39;28.88;;;18.63;;
64052;SDS011;50299;49.524;8.536;2023-03-01T03:10:13;27.67;;;18.30;;
64052;SDS011;50299;49.524;8.536;2023-03-01T03:12:42;28.10;;;18.08;;
64052;SDS011;50299;49.524;8.536;2023-03-01T03:15:09;29.55;;;18.83;;
64052;SDS011;50299;49.524;8.536;2023-03-01T03:17:39;28.80;;;18.90;;
64052;SDS011;50299;49.524;8.536;2023-03-01T03:20:09;29.00;;;18.60;;
64052;SDS011;50299;49.524;8.536;2023-03-01T03:22:38;34.50;;;20.77;;
64052;SDS011;50299;49.524;8.536;2023-03-01T03:25:06;35.85;;;20.95;;
64052;SDS011;50299;49.524;8.536;2023-03-01T03:27:37;27.15;;;18.50;;
64052;SDS011;50299;49.524;8.536;2023-03-01T03:30:04;26.73;;;18.15;;
64052;SDS011;50299;49.524;8.536;2023-03-01T03:32:35;27.63;;;18.75;;
64052;SDS011;50299;49.524;8.536;2023-03-01T03:35:05;31.25;;;21.05;;
64052;SDS011;50299;49.524;8.536;2023-03-01T03:37:39;27.27;;;19.98;;
64052;SDS011;50299;49.524;8.536;2023-03-01T03:40:24;30.45;;;20.60;;
64052;SDS011;50299;49.524;8.536;2023-03-01T03:42:51;28.38;;;20.55;;
64052;SDS011;50299;49.524;8.536;2023-03-01T03:45:18;33.33;;;20.85;;
64052;SDS011;50299;49.524;8.536;2023-03-01T03:47:44;29.63;;;20.52;;
64052;SDS011;50299;49.524;8.536;2023-03-01T03:50:14;33.00;;;21.23;;
64052;SDS011;50299;49.524;8.536;2023-03-01T03:52:41;27.50;;;19.55;;
64052;SDS011;50299;49.524;8.536;2023-03-01T03:55:09;28.48;;;20.05;;
64052;SDS011;50299;49.524;8.536;2023-03-01T03:57:37;24.20;;;19.25;;
64052;SDS011;50299;49.524;8.536;2023-03-01T04:00:04;26.65;;;17.58;;
64052;SDS011;50299;49.524;8.536;2023-03-01T04:02:41;24.95;;;18.20;;
64052;SDS011;50299;49.524;8.536;2023-03-01T04:05:09;24.55;;;18.02;;
64052;SDS011;50299;49.524;8.536;2023-03-01T04:07:37;27.02;;;18.55;;
64052;SDS011;50299;49.524;8.536;2023-03-01T04:10:05;25.30;;;18.13;;
64052;SDS011;50299;49.524;8.536;2023-03-01T04:12:35;25.88;;;18.60;;
64052;SDS011;50299;49.524;8.536;2023-03-01T04:15:02;24.88;;;18.40;;
64052;SDS011;50299;49.524;8.536;2023-03-01T04:17:39;22.77;;;17.73;;
64052;SDS011;50299;49.524;8.536;2023-03-01T04:20:10;25.92;;;17.92;;
64052;SDS011;50299;49.524;8.536;2023-03-01T04:22:39;24.95;;;17.75;;
64052;SDS011;50299;49.524;8.536;2023-03-01T04:25:09;28.45;;;20.25;;
64052;SDS011;50299;49.524;8.536;2023-03-01T04:27:40;23.50;;;19.67;;
64052;SDS011;50299;49.524;8.536;2023-03-01T04:30:07;24.65;;;17.95;;
64052;SDS011;50299;49.524;8.536;2023-03-01T04:32:34;25.88;;;18.35;;
64052;SDS011;50299;49.524;8.536;2023-03-01T04:35:01;25.30;;;18.50;;
64052;SDS011;50299;49.524;8.536;2023-03-01T04:37:30;27.23;;;19.40;;
64052;SDS011;50299;49.524;8.536;2023-03-01T04:39:57;23.95;;;18.05;;
64052;SDS011;50299;49.524;8.536;2023-03-01T04:42:24;26.85;;;19.73;;
64052;SDS011;50299;49.524;8.536;2023-03-01T04:44:51;28.48;;;19.65;;
64052;SDS011;50299;49.524;8.536;2023-03-01T04:47:18;27.27;;;18.40;;
64052;SDS011;50299;49.524;8.536;2023-03-01T04:49:45;25.30;;;18.30;;
64052;SDS011;50299;49.524;8.536;2023-03-01T04:52:11;29.23;;;20.23;;
64052;SDS011;50299;49.524;8.536;2023-03-01T04:54:37;24.58;;;19.15;;
64052;SDS011;50299;49.524;8.536;2023-03-01T04:57:04;34.80;;;20.70;;
64052;SDS011;50299;49.524;8.536;2023-03-01T04:59:30;27.75;;;17.85;;
64052;SDS011;50299;49.524;8.536;2023-03-01T05:01:57;28.10;;;18.38;;
64052;SDS011;50299;49.524;8.536;2023-03-01T05:04:23;28.02;;;17.63;;
64052;SDS011;50299;49.524;8.536;2023-03-01T05:06:50;23.50;;;15.60;;
64052;SDS011;50299;49.524;8.536;2023-03-01T05:09:17;26.85;;;16.48;;
64052;SDS011;50299;49.524;8.536;2023-03-01T05:11:44;26.65;;;15.48;;
64052;SDS011;50299;49.524;8.536;2023-03-01T05:14:10;24.55;;;15.23;;
64052;SDS011;50299;49.524;8.536;2023-03-01T05:16:37;23.20;;;15.02;;
64052;SDS011;50299;49.524;8.536;2023-03-01T05:19:03;25.25;;;16.20;;
64052;SDS011;50299;49.524;8.536;2023-03-01T05:21:42;25.23;;;16.98;;
64052;SDS011;50299;49.524;8.536;2023-03-01T05:24:27;33.33;;;16.98;;
64052;SDS011;50299;49.524;8.536;2023-03-01T05:26:55;25.27;;;16.10;;
64052;SDS011;50299;49.524;8.536;2023-03-01T05:29:22;25.83;;;17.02;;
64052;SDS011;50299;49.524;8.536;2023-03-01T05:31:56;25.23;;;16.75;;
64052;SDS011;50299;49.524;8.536;2023-03-01T05:34:24;25.42;;;16.73;;
64052;SDS011;50299;49.524;8.536;2023-03-01T05:36:52;28.13;;;16.23;;
64052;SDS011;50299;49.524;8.536;2023-03-01T05:39:23;25.00;;;15.50;;
64052;SDS011;50299;49.524;8.536;2023-03-01T05:41:52;22.95;;;15.00;;
64052;SDS011;50299;49.524;8.536;2023-03-01T05:44:20;25.45;;;15.80;;
64052;SDS011;50299;49.524;8.536;2023-03-01T05:46:46;23.98;;;17.13;;
64052;SDS011;50299;49.524;8.536;2023-03-01T05:49:17;30.33;;;18.10;;
64052;SDS011;50299;49.524;8.536;2023-03-01T05:51:47;24.35;;;16.25;;
64052;SDS011;50299;49.524;8.536;2023-03-01T05:54:15;26.80;;;17.23;;
64052;SDS011;50299;49.524;8.536;2023-03-01T05:56:42;26.05;;;18.80;;
64052;SDS011;50299;49.524;8.536;2023-03-01T05:59:08;24.60;;;17.05;;
64052;SDS011;50299;49.524;8.536;2023-03-01T06:01:35;29.33;;;18.20;;
64052;SDS011;50299;49.524;8.536;2023-03-01T06:04:02;27.60;;;19.15;;
64052;SDS011;50299;49.524;8.536;2023-03-01T06:06:33;29.35;;;18.73;;
64052;SDS011;50299;49.524;8.536;2023-03-01T06:09:01;25.40;;;18.60;;
64052;SDS011;50299;49.524;8.536;2023-03-01T06:11:27;27.05;;;19.27;;
64052;SDS011;50299;49.524;8.536;2023-03-01T06:13:53;28.13;;;18.45;;
64052;SDS011;50299;49.524;8.536;2023-03-01T06:16:20;25.02;;;18.05;;
64052;SDS011;50299;49.524;8.536;2023-03-01T06:18:47;25.48;;;19.35;;
64052;SDS011;50299;49.524;8.536;2023-03-01T06:21:14;26.02;;;19.50;;
64052;SDS011;50299;49.524;8.536;2023-03-01T06:23:40;27.48;;;18.67;;
64052;SDS011;50299;49.524;8.536;2023-03-01T06:26:07;26.38;;;19.92;;
64052;SDS011;50299;49.524;8.536;2023-03-01T06:28:35;24.92;;;18.13;;
64052;SDS011;50299;49.524;8.536;2023-03-01T06:31:02;31.73;;;18.52;;
64052;SDS011;50299;49.524;8.536;2023-03-01T06:33:30;24.83;;;16.95;;
64052;SDS011;50299;49.524;8.536;2023-03-01T06:35:56;25.77;;;18.83;;
64052;SDS011;50299;49.524;8.536;2023-03-01T06:38:23;26.98;;;19.05;;
64052;SDS011;50299;49.524;8.536;2023-03-01T06:40:54;24.98;;;19.27;;
64052;SDS011;50299;49.524;8.536;2023-03-01T06:43:23;24.13;;;17.92;;
64052;SDS011;50299;49.524;8.536;2023-03-01T06:45:50;27.45;;;17.80;;
64052;SDS011;50299;49.524;8.536;2023-03-01T06:48:22;24.30;;;17.33;;
64052;SDS011;50299;49.524;8.536;2023-03-01T06:50:48;27.35;;;17.88;;
64052;SDS011;50299;49.524;8.536;2023-03-01T06:53:15;44.78;;;18.08;;
64052;SDS011;50299;49.524;8.536;2023-03-01T06:55:41;23.65;;;16.95;;
64052;SDS011;50299;49.524;8.536;2023-03-01T06:58:11;23.58;;;16.40;;
64052;SDS011;50299;49.524;8.536;2023-03-01T07:00:39;23.70;;;14.88;;
64052;SDS011;50299;49.524;8.536;2023-03-01T07:03:07;26.50;;;16.23;;
64052;SDS011;50299;49.524;8.536;2023-03-01T07:05:36;24.50;;;16.58;;
64052;SDS011;50299;49.524;8.536;2023-03-01T07:08:02;28.63;;;16.52;;
64052;SDS011;50299;49.524;8.536;2023-03-01T07:10:29;24.45;;;16.27;;
64052;SDS011;50299;49.524;8.536;2023-03-01T07:12:56;23.63;;;15.85;;
64052;SDS011;50299;49.524;8.536;2023-03-01T07:15:23;23.48;;;15.70;;
64052;SDS011;50299;49.524;8.536;2023-03-01T07:17:51;21.88;;;16.45;;
64052;SDS011;50299;49.524;8.536;2023-03-01T07:20:18;21.40;;;15.10;;
64052;SDS011;50299;49.524;8.536;2023-03-01T07:22:48;24.08;;;15.82;;
64052;SDS011;50299;49.524;8.536;2023-03-01T07:25:14;26.13;;;16.77;;
64052;SDS011;50299;49.524;8.536;2023-03-01T07:27:41;25.30;;;15.93;;
64052;SDS011;50299;49.524;8.536;2023-03-01T07:30:07;26.20;;;15.32;;
64052;SDS011;50299;49.524;8.536;2023-03-01T07:32:36;24.58;;;16.08;;
64052;SDS011;50299;49.524;8.536;2023-03-01T07:35:02;24.40;;;16.45;;
64052;SDS011;50299;49.524;8.536;2023-03-01T07:37:29;22.80;;;16.42;;
64052;SDS011;50299;49.524;8.536;2023-03-01T07:39:55;22.08;;;14.63;;
64052;SDS011;50299;49.524;8.536;2023-03-01T07:42:21;22.13;;;13.98;;
64052;SDS011;50299;49.524;8.536;2023-03-01T07:44:48;25.48;;;15.52;;
64052;SDS011;50299;49.524;8.536;2023-03-01T07:47:14;23.30;;;16.05;;
64052;SDS011;50299;49.524;8.536;2023-03-01T07:49:41;20.95;;;15.95;;
64052;SDS011;50299;49.524;8.536;2023-03-01T07:52:14;19.75;;;15.02;;
64052;SDS011;50299;49.524;8.536;2023-03-01T07:54:42;25.05;;;16.30;;
64052;SDS011;50299;49.524;8.536;2023-03-01T07:57:10;22.25;;;15.98;;
64052;SDS011;50299;49.524;8.536;2023-03-01T08:02:06;19.20;;;13.63;;
64052;SDS011;50299;49.524;8.536;2023-03-01T08:04:36;21.80;;;15.43;;
64052;SDS011;50299;49.524;8.536;2023-03-01T08:07:04;24.48;;;17.23;;
64052;SDS011;50299;49.524;8.536;2023-03-01T08:09:33;24.60;;;18.75;;
64052;SDS011;50299;49.524;8.536;2023-03-01T08:12:00;24.73;;;17.83;;
64052;SDS011;50299;49.524;8.536;2023-03-01T08:14:27;22.00;;;12.85;;
64052;SDS011;50299;49.524;8.536;2023-03-01T08:16:54;22.25;;;15.60;;
64052;SDS011;50299;49.524;8.536;2023-03-01T08:19:21;23.05;;;16.38;;
64052;SDS011;50299;49.524;8.536;2023-03-01T08:21:47;21.73;;;15.80;;
64052;SDS011;50299;49.524;8.536;2023-03-01T08:24:14;22.10;;;16.30;;
64052;SDS011;50299;49.524;8.536;2023-03-01T08:26:40;20.95;;;13.90;;
64052;SDS011;50299;49.524;8.536;2023-03-01T08:29:07;22.52;;;16.98;;
64052;SDS011;50299;49.524;8.536;2023-03-01T08:31:39;21.33;;;15.52;;
64052;SDS011;50299;49.524;8.536;2023-03-01T08:34:13;22.67;;;16.00;;
64052;SDS011;50299;49.524;8.536;2023-03-01T08:36:41;21.73;;;14.63;;
64052;SDS011;50299;49.524;8.536;2023-03-01T08:39:10;22.90;;;16.42;;
64052;SDS011;50299;49.524;8.536;2023-03-01T08:41:38;22.67;;;18.17;;
64052;SDS011;50299;49.524;8.536;2023-03-01T08:44:06;20.88;;;15.27;;
64052;SDS011;50299;49.524;8.536;2023-03-01T08:46:41;22.45;;;15.90;;
64052;SDS011;50299;49.524;8.536;2023-03-01T08:49:17;22.00;;;17.70;;
64052;SDS011;50299;49.524;8.536;2023-03-01T08:51:46;20.25;;;15.27;;
64052;SDS011;50299;49.524;8.536;2023-03-01T08:54:14;21.92;;;17.33;;
64052;SDS011;50299;49.524;8.536;2023-03-01T08:59:09;22.67;;;16.48;;
64052;SDS011;50299;49.524;8.536;2023-03-01T09:01:37;24.65;;;16.40;;
64052;SDS011;50299;49.524;8.536;2023-03-01T09:04:03;21.88;;;16.75;;
64052;SDS011;50299;49.524;8.536;2023-03-01T09:06:31;19.85;;;14.20;;
64052;SDS011;50299;49.524;8.536;2023-03-01T09:08:59;23.10;;;16.02;;
64052;SDS011;50299;49.524;8.536;2023-03-01T09:11:25;22.17;;;18.08;;
64052;SDS011;50299;49.524;8.536;2023-03-01T09:13:52;22.48;;;16.33;;
64052;SDS011;50299;49.524;8.536;2023-03-01T09:16:19;19.92;;;15.82;;
64052;SDS011;50299;49.524;8.536;2023-03-01T09:18:56;21.23;;;16.70;;
64052;SDS011;50299;49.524;8.536;2023-03-01T09:21:23;22.98;;;15.82;;
64052;SDS011;50299;49.524;8.536;2023-03-01T09:24:12;21.75;;;16.48;;
64052;SDS011;50299;49.524;8.536;2023-03-01T09:26:39;21.33;;;18.55;;
64052;SDS011;50299;49.524;8.536;2023-03-01T09:29:07;22.15;;;17.75;;
64052;SDS011;50299;49.524;8.536;2023-03-01T09:31:35;22.73;;;15.73;;
64052;SDS011;50299;49.524;8.536;2023-03-01T09:34:02;23.67;;;17.75;;
64052;SDS011;50299;49.524;8.536;2023-03-01T09:36:29;23.48;;;19.58;;
64052;SDS011;50299;49.524;8.536;2023-03-01T09:38:59;22.38;;;18.25;;
64052;SDS011;50299;49.524;8.536;2023-03-01T09:41:49;20.65;;;14.55;;
64052;SDS011;50299;49.524;8.536;2023-03-01T09:45:14;21.83;;;16.50;;
64052;SDS011;50299;49.524;8.536;2023-03-01T09:47:25;25.23;;;17.77;;
64052;SDS011;50299;49.524;8.536;2023-03-01T09:50:01;25.10;;;16.95;;
64052;SDS011;50299;49.524;8.536;2023-03-01T09:52:39;23.85;;;19.60;;
64052;SDS011;50299;49.524;8.536;2023-03-01T09:55:16;25.17;;;17.63;;
64052;SDS011;50299;49.524;8.536;2023-03-01T09:58:05;22.75;;;19.75;;
64052;SDS011;50299;49.524;8.536;2023-03-01T10:00:54;24.63;;;17.27;;
64052;SDS011;50299;49.524;8.536;2023-03-01T10:03:27;24.63;;;20.25;;
64052;SDS011;50299;49.524;8.536;2023-03-01T10:08:58;23.33;;;19.02;;
64052;SDS011;50299;49.524;8.536;2023-03-01T10:11:30;21.95;;;17.15;;
64052;SDS011;50299;49.524;8.536;2023-03-01T10:14:15;22.42;;;18.20;;
64052;SDS011;50299;49.524;8.536;2023-03-01T10:16:52;25.60;;;17.90;;
64052;SDS011;50299;49.524;8.536;2023-03-01T10:19:32;24.20;;;18.00;;
64052;SDS011;50299;49.524;8.536;2023-03-01T10:22:04;26.58;;;19.95;;
64052;SDS011;50299;49.524;8.536;2023-03-01T10:24:39;21.80;;;16.42;;
64052;SDS011;50299;49.524;8.536;2023-03-01T10:27:11;23.58;;;18.63;;
64052;SDS011;50299;49.524;8.536;2023-03-01T10:30:05;24.73;;;19.17;;
64052;SDS011;50299;49.524;8.536;2023-03-01T10:32:39;26.25;;;17.05;;
64052;SDS011;50299;49.524;8.536;2023-03-01T10:38:04;24.55;;;18.00;;
64052;SDS011;50299;49.524;8.536;2023-03-01T10:40:49;25.08;;;21.35;;
64052;SDS011;50299;49.524;8.536;2023-03-01T10:43:20;22.98;;;18.55;;
64052;SDS011;50299;49.524;8.536;2023-03-01T10:45:48;21.38;;;17.08;;
64052;SDS011;50299;49.524;8.536;2023-03-01T10:48:18;24.52;;;17.63;;
64052;SDS011;50299;49.524;8.536;2023-03-01T10:50:51;24.30;;;20.23;;
64052;SDS011;50299;49.524;8.536;2023-03-01T10:53:35;21.05;;;17.45;;
64052;SDS011;50299;49.524;8.536;2023-03-01T10:56:08;23.55;;;18.35;;
64052;SDS011;50299;49.524;8.536;2023-03-01T10:58:40;22.05;;;16.65;;
64052;SDS011;50299;49.524;8.536;2023-03-01T11:06:34;22.25;;;17.02;;
64052;SDS011;50299;49.524;8.536;2023-03-01T11:12:12;21.60;;;16.63;;
64052;SDS011;50299;49.524;8.536;2023-03-01T11:14:50;23.73;;;16.95;;
64052;SDS011;50299;49.524;8.536;2023-03-01T11:20:05;23.50;;;18.80;;
64052;SDS011;50299;49.524;8.536;2023-03-01T11:22:39;23.98;;;17.33;;
64052;SDS011;50299;49.524;8.536;2023-03-01T11:25:13;21.05;;;17.10;;
64052;SDS011;50299;49.524;8.536;2023-03-01T11:27:44;25.20;;;18.33;;
64052;SDS011;50299;49.524;8.536;2023-03-01T11:30:22;24.27;;;17.23;;
64052;SDS011;50299;49.524;8.536;2023-03-01T11:35:35;20.90;;;16.13;;
64052;SDS011;50299;49.524;8.536;2023-03-01T11:40:40;21.77;;;16.63;;
64052;SDS011;50299;49.524;8.536;2023-03-01T11:43:16;23.60;;;18.15;;
64052;SDS011;50299;49.524;8.536;2023-03-01T11:48:33;23.02;;;16.50;;
64052;SDS011;50299;49.524;8.536;2023-03-01T11:51:25;21.30;;;16.92;;
64052;SDS011;50299;49.524;8.536;2023-03-01T11:57:01;20.45;;;15.13;;
64052;SDS011;50299;49.524;8.536;2023-03-01T11:59:51;19.77;;;15.70;;
64052;SDS011;50299;49.524;8.536;2023-03-01T12:02:42;20.98;;;15.77;;
64052;SDS011;50299;49.524;8.536;2023-03-01T12:05:23;20.67;;;15.73;;
64052;SDS011;50299;49.524;8.536;2023-03-01T12:19:39;20.75;;;16.17;;
64052;SDS011;50299;49.524;8.536;2023-03-01T12:22:19;20.92;;;16.92;;
64052;SDS011;50299;49.524;8.536;2023-03-01T12:25:02;21.40;;;16.52;;
64052;SDS011;50299;49.524;8.536;2023-03-01T12:30:46;21.40;;;16.48;;
64052;SDS011;50299;49.524;8.536;2023-03-01T12:33:43;20.63;;;17.27;;
64052;SDS011;50299;49.524;8.536;2023-03-01T12:50:41;21.95;;;17.58;;
64052;SDS011;50299;49.524;8.536;2023-03-01T12:53:45;19.08;;;15.02;;
64052;SDS011;50299;49.524;8.536;2023-03-01T12:56:24;23.65;;;16.45;;
64052;SDS011;50299;49.524;8.536;2023-03-01T13:05:14;19.73;;;16.70;;
64052;SDS011;50299;49.524;8.536;2023-03-01T13:10:55;20.23;;;15.70;;
64052;SDS011;50299;49.524;8.536;2023-03-01T13:13:27;20.35;;;15.52;;
64052;SDS011;50299;49.524;8.536;2023-03-01T13:15:54;19.65;;;15.52;;
64052;SDS011;50299;49.524;8.536;2023-03-01T13:20:50;19.98;;;16.13;;
64052;SDS011;50299;49.524;8.536;2023-03-01T13:31:07;23.50;;;15.80;;
64052;SDS011;50299;49.524;8.536;2023-03-01T13:33:42;18.95;;;15.38;;
64052;SDS011;50299;49.524;8.536;2023-03-01T13:36:45;18.42;;;14.75;;
64052;SDS011;50299;49.524;8.536;2023-03-01T13:41:55;16.65;;;14.10;;
64052;SDS011;50299;49.524;8.536;2023-03-01T13:46:53;18.67;;;14.15;;
64052;SDS011;50299;49.524;8.536;2023-03-01T13:49:27;16.08;;;13.55;;
64052;SDS011;50299;49.524;8.536;2023-03-01T13:54:59;16.92;;;12.70;;
64052;SDS011;50299;49.524;8.536;2023-03-01T13:57:30;15.95;;;12.60;;
64052;SDS011;50299;49.524;8.536;2023-03-01T14:00:00;15.65;;;12.30;;
64052;SDS011;50299;49.524;8.536;2023-03-01T14:02:27;19.00;;;13.00;;
64052;SDS011;50299;49.524;8.536;2023-03-01T14:04:58;16.75;;;12.88;;
64052;SDS011;50299;49.524;8.536;2023-03-01T14:07:27;17.70;;;12.35;;
64052;SDS011;50299;49.524;8.536;2023-03-01T14:10:01;20.45;;;13.27;;
64052;SDS011;50299;49.524;8.536;2023-03-01T14:15:42;16.05;;;12.10;;
64052;SDS011;50299;49.524;8.536;2023-03-01T14:18:21;14.30;;;11.25;;
64052;SDS011;50299;49.524;8.536;2023-03-01T14:20:50;14.15;;;10.98;;
64052;SDS011;50299;49.524;8.536;2023-03-01T14:23:20;14.98;;;11.77;;
64052;SDS011;50299;49.524;8.536;2023-03-01T14:25:49;14.40;;;11.10;;
64052;SDS011;50299;49.524;8.536;2023-03-01T14:28:18;16.33;;;11.82;;
64052;SDS011;50299;49.524;8.536;2023-03-01T14:30:54;15.15;;;12.65;;
64052;SDS011;50299;49.524;8.536;2023-03-01T14:33:26;19.40;;;13.90;;
64052;SDS011;50299;49.524;8.536;2023-03-01T14:41:10;15.93;;;12.35;;
64052;SDS011;50299;49.524;8.536;2023-03-01T14:43:42;12.63;;;10.85;;
64052;SDS011;50299;49.524;8.536;2023-03-01T14:46:19;14.43;;;11.52;;
64052;SDS011;50299;49.524;8.536;2023-03-01T14:48:57;13.15;;;11.73;;
64052;SDS011;50299;49.524;8.536;2023-03-01T14:51:28;16.08;;;12.63;;
64052;SDS011;50299;49.524;8.536;2023-03-01T14:53:56;14.18;;;11.05;;
64052;SDS011;50299;49.524;8.536;2023-03-01T14:56:23;15.48;;;11.63;;
64052;SDS011;50299;49.524;8.536;2023-03-01T14:58:53;14.98;;;11.75;;
64052;SDS011;50299;49.524;8.536;2023-03-01T15:01:24;14.68;;;11.02;;
64052;SDS011;50299;49.524;8.536;2023-03-01T15:03:51;15.73;;;13.52;;
64052;SDS011;50299;49.524;8.536;2023-03-01T15:06:19;15.82;;;11.18;;
64052;SDS011;50299;49.524;8.536;2023-03-01T15:08:50;14.45;;;11.00;;
64052;SDS011;50299;49.524;8.536;2023-03-01T15:11:20;12.50;;;9.88;;
64052;SDS011;50299;49.524;8.536;2023-03-01T15:13:52;14.73;;;10.88;;
64052;SDS011;50299;49.524;8.536;2023-03-01T15:16:29;13.93;;;10.35;;
64052;SDS011;50299;49.524;8.536;2023-03-01T15:19:02;14.30;;;9.90;;
64052;SDS011;50299;49.524;8.536;2023-03-01T15:21:32;12.40;;;10.68;;
64052;SDS011;50299;49.524;8.536;2023-03-01T15:26:50;11.98;;;9.52;;
64052;SDS011;50299;49.524;8.536;2023-03-01T15:29:25;14.10;;;10.93;;
64052;SDS011;50299;49.524;8.536;2023-03-01T15:31:58;12.95;;;10.90;;
64052;SDS011;50299;49.524;8.536;2023-03-01T15:34:34;13.07;;;10.10;;
64052;SDS011;50299;49.524;8.536;2023-03-01T15:37:32;13.70;;;10.18;;
64052;SDS011;50299;49.524;8.536;2023-03-01T15:43:04;12.10;;;8.95;;
64052;SDS011;50299;49.524;8.536;2023-03-01T15:45:32;11.90;;;9.65;;
64052;SDS011;50299;49.524;8.536;2023-03-01T15:48:05;12.32;;;8.70;;
64052;SDS011;50299;49.524;8.536;2023-03-01T15:50:43;10.52;;;8.35;;
64052;SDS011;50299;49.524;8.536;2023-03-01T15:53:12;14.00;;;10.27;;
64052;SDS011;50299;49.524;8.536;2023-03-01T15:55:40;11.88;;;9.40;;
64052;SDS011;50299;49.524;8.536;2023-03-01T15:58:19;12.38;;;9.07;;
64052;SDS011;50299;49.524;8.536;2023-03-01T16:00:50;11.90;;;9.73;;
64052;SDS011;50299;49.524;8.536;2023-03-01T16:03:27;11.13;;;9.05;;
64052;SDS011;50299;49.524;8.536;2023-03-01T16:05:55;13.77;;;11.23;;
64052;SDS011;50299;49.524;8.536;2023-03-01T16:10:50;11.85;;;8.63;;
64052;SDS011;50299;49.524;8.536;2023-03-01T16:13:17;13.68;;;9.77;;
64052;SDS011;50299;49.524;8.536;2023-03-01T16:15:45;12.32;;;10.38;;
64052;SDS011;50299;49.524;8.536;2023-03-01T16:18:13;12.40;;;9.80;;
64052;SDS011;50299;49.524;8.536;2023-03-01T16:20:40;14.52;;;9.43;;
64052;SDS011;50299;49.524;8.536;2023-03-01T16:23:07;14.95;;;9.88;;
64052;SDS011;50299;49.524;8.536;2023-03-01T16:25:34;12.43;;;10.25;;
64052;SDS011;50299;49.524;8.536;2023-03-01T16:28:04;11.80;;;8.73;;
64052;SDS011;50299;49.524;8.536;2023-03-01T16:30:35;12.85;;;9.85;;
64052;SDS011;50299;49.524;8.536;2023-03-01T16:33:03;13.13;;;9.57;;
64052;SDS011;50299;49.524;8.536;2023-03-01T16:35:50;14.50;;;10.05;;
64052;SDS011;50299;49.524;8.536;2023-03-01T16:38:17;13.68;;;9.48;;
64052;SDS011;50299;49.524;8.536;2023-03-01T16:40:46;14.18;;;9.27;;
64052;SDS011;50299;49.524;8.536;2023-03-01T16:43:14;12.52;;;10.38;;